Time;durP1;ratioP1;P1;durP2;ratioP2;P2;SDS_P1;SDS_P2;PMS_P1;PMS_P2;Temp;Humidity;BMP_temperature;BMP_pressure;BME280_temperature;BME280_humidity;BME280_pressure;Samples;Min_cycle;Max_cycle;Signal;HPM_P1;HPM_P2
2023/07/04 00:03:30;;;;;;;4.47;3.60;;;21.40;29.10;;;;;;10404145;28;20244;-75
2023/07/04 00:08:35;;;;;;;4.33;3.67;;;21.40;29.30;;;;;;10404448;28;20254;-76
2023/07/04 00:13:39;;;;;;;4.03;3.63;;;21.40;29.30;;;;;;10404607;28;20230;-75
2023/07/04 00:18:44;;;;;;;6.17;3.80;;;21.40;28.90;;;;;;10405740;28;20265;-76
2023/07/04 00:23:52;;;;;;;5.27;4.30;;;21.30;28.70;;;;;;10402196;28;20222;-75
2023/07/04 00:28:57;;;;;;;4.90;4.43;;;21.30;29.00;;;;;;10400252;28;20317;-76
2023/07/04 00:34:00;;;;;;;5.70;3.80;;;21.30;29.20;;;;;;10404333;28;20268;-76
2023/07/04 00:39:05;;;;;;;4.47;3.90;;;21.10;29.50;;;;;;10401318;28;20234;-75
2023/07/04 00:44:20;;;;;;;4.67;3.93;;;21.00;30.40;;;;;;10401540;28;20229;-76
2023/07/04 00:49:27;;;;;;;6.27;4.43;;;20.90;31.20;;;;;;10404764;28;20235;-75
2023/07/04 00:54:38;;;;;;;5.60;4.80;;;20.90;30.40;;;;;;10398893;28;20230;-75
2023/07/04 00:59:44;;;;;;;6.03;4.40;;;20.70;31.40;;;;;;10402900;28;20229;-75
2023/07/04 01:04:49;;;;;;;4.87;4.00;;;20.70;30.80;;;;;;10401712;28;20316;-75
2023/07/04 01:10:02;;;;;;;5.37;4.23;;;20.60;30.90;;;;;;10403019;28;20233;-75
2023/07/04 01:15:07;;;;;;;7.03;5.13;;;20.70;31.60;;;;;;10406265;28;20232;-76
2023/07/04 01:20:15;;;;;;;5.23;4.60;;;20.70;30.40;;;;;;10408240;28;20508;-76
2023/07/04 01:25:30;;;;;;;6.10;4.73;;;20.80;30.50;;;;;;10409308;28;20698;-76
2023/07/04 01:30:38;;;;;;;6.47;5.67;;;20.80;30.90;;;;;;10409050;28;20638;-76
2023/07/04 01:35:43;;;;;;;7.77;6.27;;;20.90;30.80;;;;;;10403338;28;20244;-76
2023/07/04 01:40:46;;;;;;;5.97;5.43;;;21.00;30.10;;;;;;10410573;28;20248;-76
2023/07/04 01:45:51;;;;;;;6.63;5.47;;;21.10;30.10;;;;;;10404053;28;20239;-76
2023/07/04 01:50:54;;;;;;;7.27;6.03;;;21.10;30.80;;;;;;10408313;28;20232;-75
2023/07/04 01:55:57;;;;;;;7.60;6.10;;;21.20;30.50;;;;;;10404144;28;20279;-76
2023/07/04 02:01:02;;;;;;;7.50;6.40;;;21.20;30.60;;;;;;10407869;28;20377;-75
2023/07/04 02:06:06;;;;;;;6.70;5.97;;;21.30;31.50;;;;;;10404594;28;20256;-76
2023/07/04 02:11:10;;;;;;;6.73;6.07;;;21.30;30.80;;;;;;10406575;28;20214;-76
2023/07/04 02:16:14;;;;;;;6.50;5.80;;;21.30;30.90;;;;;;10406016;28;20261;-75
2023/07/04 02:21:18;;;;;;;5.73;5.17;;;21.30;32.00;;;;;;10407339;28;20222;-76
2023/07/04 02:26:22;;;;;;;5.30;4.60;;;21.30;31.20;;;;;;10401659;28;20233;-75
2023/07/04 02:31:27;;;;;;;5.03;4.53;;;21.30;31.60;;;;;;10403584;28;20252;-75
2023/07/04 02:36:30;;;;;;;4.80;4.30;;;21.20;32.30;;;;;;10401902;28;20725;-76
2023/07/04 02:41:33;;;;;;;5.33;4.03;;;21.10;31.90;;;;;;10404755;28;20225;-75
2023/07/04 02:46:38;;;;;;;4.93;4.43;;;20.90;32.80;;;;;;10402520;28;20312;-75
2023/07/04 02:51:41;;;;;;;6.87;4.37;;;20.80;33.10;;;;;;10402636;28;20222;-75
2023/07/04 02:56:45;;;;;;;5.73;4.37;;;20.60;32.90;;;;;;10403665;28;20236;-76
2023/07/04 03:01:51;;;;;;;5.60;3.97;;;20.40;33.70;;;;;;10401925;28;20237;-75
2023/07/04 03:06:54;;;;;;;5.97;3.93;;;20.30;34.30;;;;;;10381690;28;20233;-76
2023/07/04 03:11:57;;;;;;;6.30;3.90;;;20.30;33.90;;;;;;10404299;28;20226;-76
2023/07/04 03:17:02;;;;;;;4.03;3.23;;;20.40;34.10;;;;;;10402358;28;20765;-75
2023/07/04 03:22:05;;;;;;;4.03;3.60;;;20.40;34.50;;;;;;10402464;28;20221;-76
2023/07/04 03:27:09;;;;;;;5.47;3.33;;;20.50;34.10;;;;;;10403119;28;20234;-75
2023/07/04 03:32:13;;;;;;;3.93;3.43;;;20.50;34.20;;;;;;10402295;28;20264;-76
2023/07/04 03:37:17;;;;;;;5.57;3.07;;;20.30;35.20;;;;;;10401126;28;20248;-76
2023/07/04 03:42:20;;;;;;;3.50;3.20;;;20.20;34.70;;;;;;10403078;28;20272;-75
2023/07/04 03:47:24;;;;;;;5.40;4.10;;;20.00;34.80;;;;;;10394969;28;20229;-76
2023/07/04 03:52:28;;;;;;;5.47;3.73;;;20.00;36.30;;;;;;10397155;28;20287;-76
2023/07/04 03:57:31;;;;;;;6.47;3.60;;;20.00;35.20;;;;;;10391377;28;20233;-76
2023/07/04 04:02:35;;;;;;;5.00;3.90;;;19.90;35.30;;;;;;10399129;28;20230;-76
2023/07/04 04:07:39;;;;;;;4.80;3.47;;;19.90;36.40;;;;;;10396356;28;20229;-76
2023/07/04 04:12:42;;;;;;;5.70;3.70;;;19.80;35.60;;;;;;10398219;28;20635;-76
2023/07/04 04:17:47;;;;;;;4.53;3.63;;;19.80;36.30;;;;;;10398343;28;20222;-76
2023/07/04 04:22:51;;;;;;;3.77;2.93;;;19.60;36.60;;;;;;10397249;28;20643;-76
2023/07/04 04:27:54;;;;;;;3.83;3.50;;;19.50;36.10;;;;;;10398199;28;20305;-76
2023/07/04 04:33:02;;;;;;;4.60;3.20;;;19.50;36.50;;;;;;10396979;28;20228;-76
2023/07/04 04:38:07;;;;;;;3.80;2.97;;;19.50;38.00;;;;;;10397091;28;20337;-76
2023/07/04 04:43:10;;;;;;;4.33;3.20;;;19.50;37.10;;;;;;10394906;28;20272;-76
2023/07/04 04:48:18;;;;;;;3.87;2.83;;;19.60;37.50;;;;;;10400054;28;20228;-76
2023/07/04 04:53:24;;;;;;;3.63;3.23;;;19.60;38.40;;;;;;10401771;28;20241;-75
2023/07/04 04:58:27;;;;;;;3.83;3.37;;;19.60;37.70;;;;;;10400008;28;20287;-74
2023/07/04 05:03:32;;;;;;;3.97;3.57;;;19.70;37.70;;;;;;10405427;28;20232;-75
2023/07/04 05:08:35;;;;;;;4.23;3.60;;;19.70;38.80;;;;;;10400200;28;20583;-75
2023/07/04 05:13:42;;;;;;;3.60;3.23;;;19.80;38.10;;;;;;10401384;28;20280;-76
2023/07/04 05:18:48;;;;;;;3.93;3.00;;;19.80;38.70;;;;;;10406691;28;20217;-76
2023/07/04 05:23:52;;;;;;;3.27;2.93;;;19.90;39.70;;;;;;10401539;28;20586;-77
2023/07/04 05:28:57;;;;;;;2.80;2.40;;;20.00;38.80;;;;;;10401127;28;20222;-78
2023/07/04 05:34:02;;;;;;;3.07;2.60;;;20.20;38.80;;;;;;10401434;28;20284;-78
2023/07/04 05:39:06;;;;;;;3.13;2.83;;;20.20;39.20;;;;;;10405265;28;20273;-78
2023/07/04 05:44:11;;;;;;;3.20;2.77;;;20.30;38.60;;;;;;10405141;28;20257;-78
2023/07/04 05:49:16;;;;;;;2.80;2.60;;;20.40;39.20;;;;;;10401850;28;20761;-78
2023/07/04 05:54:19;;;;;;;5.03;2.60;;;20.50;39.40;;;;;;10404342;28;20217;-78
2023/07/04 05:59:23;;;;;;;3.00;2.30;;;20.60;38.80;;;;;;10403330;28;20230;-77
2023/07/04 06:04:27;;;;;;;2.80;2.37;;;20.70;38.60;;;;;;10402064;28;20255;-78
2023/07/04 06:09:31;;;;;;;3.37;2.20;;;20.90;38.90;;;;;;10404680;28;21237;-77
2023/07/04 06:14:37;;;;;;;2.53;2.33;;;20.90;38.70;;;;;;10398463;28;20317;-77
2023/07/04 06:19:41;;;;;;;3.63;2.30;;;21.10;39.20;;;;;;10387268;28;20827;-77
2023/07/04 06:24:48;;;;;;;2.40;2.20;;;21.20;38.80;;;;;;10403298;28;20230;-77
2023/07/04 06:29:54;;;;;;;2.97;2.33;;;21.30;38.60;;;;;;10403525;28;20279;-77
2023/07/04 06:34:59;;;;;;;2.53;2.10;;;21.40;38.50;;;;;;10395267;28;20731;-75
2023/07/04 06:40:02;;;;;;;2.40;2.20;;;21.60;38.90;;;;;;10397035;28;20229;-76
2023/07/04 06:45:07;;;;;;;2.30;2.10;;;21.70;38.00;;;;;;10405119;28;20324;-76
2023/07/04 06:50:12;;;;;;;2.67;2.40;;;21.90;38.60;;;;;;10395694;28;20226;-76
2023/07/04 06:55:15;;;;;;;2.50;2.30;;;22.10;38.40;;;;;;10398366;28;20241;-76
2023/07/04 07:00:19;;;;;;;2.80;2.00;;;22.20;38.40;;;;;;10396155;28;20251;-75
2023/07/04 07:05:24;;;;;;;3.30;2.20;;;22.30;38.10;;;;;;10401452;28;20233;-76
2023/07/04 07:10:27;;;;;;;2.03;1.83;;;22.40;37.70;;;;;;10398239;28;20233;-76
2023/07/04 07:15:31;;;;;;;2.10;1.90;;;22.40;37.30;;;;;;10395182;28;20645;-76
2023/07/04 07:20:36;;;;;;;2.40;2.20;;;22.50;37.20;;;;;;10397560;28;20750;-75
2023/07/04 07:25:39;;;;;;;2.40;2.20;;;22.50;37.10;;;;;;10397162;28;20229;-75
2023/07/04 07:30:42;;;;;;;3.03;2.17;;;22.60;36.80;;;;;;10395589;28;20308;-75
2023/07/04 07:35:49;;;;;;;2.67;2.47;;;22.70;36.50;;;;;;10398011;28;20736;-77
2023/07/04 07:40:54;;;;;;;3.03;2.40;;;22.70;37.40;;;;;;10400222;28;20770;-76
2023/07/04 07:45:57;;;;;;;2.87;2.27;;;22.80;36.20;;;;;;10399488;28;20241;-77
2023/07/04 07:51:02;;;;;;;2.67;2.30;;;22.90;36.20;;;;;;10399190;28;20228;-75
2023/07/04 07:56:06;;;;;;;2.47;2.27;;;23.00;35.60;;;;;;10393666;28;20313;-79
2023/07/04 08:01:13;;;;;;;2.30;2.10;;;23.00;35.80;;;;;;10397109;28;20316;-77
2023/07/04 08:06:23;;;;;;;2.43;2.20;;;23.10;35.80;;;;;;10396739;28;20239;-78
2023/07/04 08:11:27;;;;;;;2.27;1.90;;;23.20;35.40;;;;;;10398345;28;20304;-77
2023/07/04 08:16:32;;;;;;;2.13;2.00;;;23.30;35.20;;;;;;10394058;28;20717;-76
2023/07/04 08:21:37;;;;;;;2.50;2.30;;;23.40;35.30;;;;;;10393007;28;20229;-76
2023/07/04 08:26:42;;;;;;;2.80;2.20;;;23.50;34.60;;;;;;10396601;28;20240;-76
2023/07/04 08:31:45;;;;;;;2.50;2.20;;;23.50;34.00;;;;;;10397699;28;20617;-75
2023/07/04 08:36:50;;;;;;;4.03;2.07;;;23.60;33.90;;;;;;10393808;28;20735;-77
2023/07/04 08:41:59;;;;;;;3.50;2.53;;;23.60;34.00;;;;;;10391803;28;20488;-77
2023/07/04 08:47:03;;;;;;;4.30;2.17;;;23.70;33.60;;;;;;10395455;28;20221;-76
2023/07/04 08:52:11;;;;;;;2.67;2.00;;;23.80;33.80;;;;;;10396675;28;20222;-77
2023/07/04 08:57:27;;;;;;;3.43;2.20;;;23.80;33.80;;;;;;10392741;28;20252;-78
2023/07/04 09:02:55;;;;;;;2.83;2.10;;;23.90;33.60;;;;;;10392540;28;20823;-77
2023/07/04 09:08:09;;;;;;;3.27;2.33;;;24.10;33.10;;;;;;10391993;28;20221;-77
2023/07/04 09:13:16;;;;;;;2.57;2.37;;;24.30;31.50;;;;;;10392949;28;20359;-78
2023/07/04 09:18:29;;;;;;;2.47;2.27;;;24.40;32.20;;;;;;10394077;28;20705;-78
2023/07/04 09:23:34;;;;;;;2.77;2.57;;;24.50;31.70;;;;;;10398349;28;20650;-78
2023/07/04 09:28:42;;;;;;;2.50;2.30;;;24.50;31.90;;;;;;10401296;28;20251;-77
2023/07/04 09:33:46;;;;;;;2.33;2.13;;;24.50;31.90;;;;;;10399247;28;20239;-78
2023/07/04 09:38:56;;;;;;;2.53;2.30;;;24.50;32.00;;;;;;10404247;28;20226;-78
2023/07/04 09:44:13;;;;;;;2.63;2.43;;;24.50;31.90;;;;;;10404773;28;20240;-77
2023/07/04 09:49:26;;;;;;;3.13;2.60;;;24.50;31.50;;;;;;10407338;28;20308;-76
2023/07/04 09:54:32;;;;;;;3.20;2.70;;;24.50;30.90;;;;;;10403545;28;20790;-77
2023/07/04 09:59:39;;;;;;;2.50;2.30;;;24.50;30.90;;;;;;10403789;28;20241;-78
2023/07/04 10:04:43;;;;;;;4.33;2.63;;;24.50;31.50;;;;;;10396477;28;20316;-78
2023/07/04 10:09:52;;;;;;;2.97;2.30;;;24.50;31.60;;;;;;10397370;28;20914;-77
2023/07/04 10:14:57;;;;;;;3.03;2.40;;;24.50;31.10;;;;;;10400453;28;20233;-77
2023/07/04 10:20:05;;;;;;;3.20;2.57;;;24.50;31.60;;;;;;10400431;28;20240;-77
2023/07/04 10:25:12;;;;;;;2.80;2.60;;;24.60;31.70;;;;;;10402218;28;20222;-76
2023/07/04 10:30:20;;;;;;;2.73;2.53;;;24.70;31.50;;;;;;10400831;28;20230;-76
2023/07/04 10:35:31;;;;;;;3.17;2.60;;;24.80;31.40;;;;;;10403595;28;20232;-77
2023/07/04 10:40:38;;;;;;;4.43;3.10;;;24.80;32.30;;;;;;10402565;28;20287;-77
2023/07/04 10:45:44;;;;;;;7.20;3.50;;;25.00;32.20;;;;;;10400763;28;20331;-78
2023/07/04 10:51:07;;;;;;;3.60;3.30;;;25.20;32.10;;;;;;10401579;28;20305;-78
2023/07/04 10:56:15;;;;;;;4.33;3.70;;;25.50;30.90;;;;;;10396816;28;20313;-77
2023/07/04 11:01:24;;;;;;;3.83;3.47;;;25.70;30.00;;;;;;10402619;28;20236;-78
2023/07/04 11:06:40;;;;;;;3.73;3.43;;;26.00;29.60;;;;;;10399790;28;20324;-78
2023/07/04 11:11:48;;;;;;;4.30;3.90;;;26.20;28.40;;;;;;10395043;28;20276;-77
2023/07/04 11:16:54;;;;;;;4.57;4.07;;;26.30;27.80;;;;;;10396672;28;20229;-78
2023/07/04 11:22:16;;;;;;;4.87;4.00;;;26.30;27.90;;;;;;10399669;28;20335;-78
2023/07/04 11:27:24;;;;;;;4.33;3.73;;;26.20;27.50;;;;;;10398609;28;20229;-78
2023/07/04 11:32:34;;;;;;;4.20;3.80;;;26.30;28.60;;;;;;10399589;28;20279;-78
2023/07/04 11:37:51;;;;;;;4.53;3.77;;;26.40;27.90;;;;;;10395822;28;20277;-79
2023/07/04 11:43:00;;;;;;;4.93;3.97;;;26.50;26.50;;;;;;10392490;28;20334;-78
2023/07/04 11:48:06;;;;;;;4.63;4.20;;;26.50;27.50;;;;;;10394844;28;20295;-76
2023/07/04 11:53:14;;;;;;;4.60;4.20;;;26.70;27.80;;;;;;10400392;28;20230;-76
2023/07/04 11:58:20;;;;;;;5.37;4.00;;;26.80;27.50;;;;;;10398851;28;20232;-76
2023/07/04 12:03:56;;;;;;;4.30;3.90;;;26.90;26.70;;;;;;10402002;28;20230;-79
2023/07/04 12:09:01;;;;;;;4.47;3.67;;;27.10;26.40;;;;;;10398322;28;20230;-77
2023/07/04 12:14:07;;;;;;;5.70;4.30;;;27.20;26.30;;;;;;10390878;28;20232;-78
2023/07/04 12:19:16;;;;;;;5.17;4.13;;;27.30;25.70;;;;;;10391351;28;20516;-79
2023/07/04 12:24:24;;;;;;;5.37;4.40;;;27.50;25.40;;;;;;10390846;28;20229;-78
2023/07/04 12:29:29;;;;;;;4.20;3.80;;;27.60;25.70;;;;;;10392881;28;20820;-77
2023/07/04 12:34:36;;;;;;;5.17;4.17;;;27.60;25.30;;;;;;10386553;28;20222;-77
2023/07/04 12:39:44;;;;;;;4.80;4.30;;;27.60;25.30;;;;;;10377995;28;20228;-79
2023/07/04 12:44:49;;;;;;;4.63;4.13;;;27.70;24.70;;;;;;10378571;28;20221;-78
2023/07/04 12:49:54;;;;;;;4.27;3.80;;;27.80;24.80;;;;;;10381462;28;20224;-78
2023/07/04 12:54:59;;;;;;;4.73;4.00;;;27.90;24.70;;;;;;10385320;28;20240;-80
2023/07/04 13:00:14;;;;;;;4.50;4.10;;;28.00;24.60;;;;;;10380415;28;20822;-81
2023/07/04 13:05:18;;;;;;;4.77;4.23;;;28.10;24.00;;;;;;10378231;28;20236;-78
2023/07/04 13:10:25;;;;;;;5.23;3.90;;;28.20;24.30;;;;;;10384566;28;20260;-81
2023/07/04 13:15:32;;;;;;;4.60;4.03;;;28.20;23.70;;;;;;10380621;28;21060;-74
2023/07/04 13:20:38;;;;;;;4.27;3.87;;;28.40;23.50;;;;;;10381672;28;20309;-75
2023/07/04 13:25:41;;;;;;;4.40;4.00;;;28.40;23.80;;;;;;10383270;28;20221;-76
2023/07/04 13:30:49;;;;;;;5.50;3.70;;;28.50;24.00;;;;;;10394300;28;20224;-76
2023/07/04 13:36:07;;;;;;;4.70;4.20;;;28.60;23.60;;;;;;10392111;28;20238;-77
2023/07/04 13:41:10;;;;;;;4.40;4.00;;;28.60;22.80;;;;;;10403334;28;20308;-76
2023/07/04 13:46:15;;;;;;;4.40;4.00;;;28.60;22.90;;;;;;10398484;28;20226;-77
2023/07/04 13:51:22;;;;;;;5.10;3.90;;;28.60;22.60;;;;;;10404562;28;20720;-77
2023/07/04 13:56:26;;;;;;;4.47;4.03;;;28.50;22.20;;;;;;10400220;28;20221;-76
2023/07/04 14:01:30;;;;;;;3.70;3.33;;;28.60;23.00;;;;;;10405683;28;20231;-78
2023/07/04 14:06:36;;;;;;;4.40;4.00;;;28.70;22.50;;;;;;10404043;28;20234;-76
2023/07/04 14:11:40;;;;;;;4.23;3.87;;;28.80;23.00;;;;;;10402660;28;20336;-76
2023/07/04 14:16:45;;;;;;;4.47;4.07;;;28.80;22.50;;;;;;10403617;28;20249;-78
2023/07/04 14:22:08;;;;;;;6.03;4.07;;;29.00;21.80;;;;;;10392259;28;20236;-76
2023/07/04 14:27:11;;;;;;;5.90;4.70;;;29.10;22.10;;;;;;10397822;28;20240;-76
2023/07/04 14:32:24;;;;;;;5.87;4.90;;;29.20;21.60;;;;;;10400384;28;20604;-76
2023/07/04 14:37:28;;;;;;;4.87;4.33;;;29.20;20.70;;;;;;10401457;28;20233;-75
2023/07/04 14:42:31;;;;;;;5.00;4.37;;;29.10;20.60;;;;;;10402371;28;21005;-76
2023/07/04 14:47:36;;;;;;;4.63;4.23;;;29.00;20.60;;;;;;10397550;28;20236;-74
2023/07/04 14:52:39;;;;;;;6.77;4.80;;;29.00;20.60;;;;;;10404791;28;20226;-75
2023/07/04 14:57:43;;;;;;;5.47;4.70;;;29.00;20.60;;;;;;10400966;28;20554;-75
2023/07/04 15:02:48;;;;;;;5.07;4.53;;;29.10;20.60;;;;;;10400179;28;20340;-75
2023/07/04 15:07:52;;;;;;;5.13;4.37;;;29.20;20.50;;;;;;10404065;28;20218;-76
2023/07/04 15:12:55;;;;;;;5.63;4.50;;;29.20;20.70;;;;;;10400575;28;20291;-75
2023/07/04 15:18:00;;;;;;;6.30;5.27;;;29.30;20.70;;;;;;10390980;28;20226;-77
2023/07/04 15:23:03;;;;;;;5.47;4.97;;;29.40;19.30;;;;;;10386276;28;20229;-79
2023/07/04 15:28:07;;;;;;;5.33;4.50;;;29.50;20.00;;;;;;10383795;28;20236;-78
2023/07/04 15:33:11;;;;;;;4.93;4.53;;;29.50;20.10;;;;;;10383084;28;20243;-74
2023/07/04 15:38:17;;;;;;;4.97;4.47;;;29.70;19.50;;;;;;10383460;28;20237;-75
2023/07/04 15:43:21;;;;;;;4.00;3.70;;;29.70;19.80;;;;;;10380107;28;20301;-74
2023/07/04 15:48:26;;;;;;;4.37;4.03;;;29.80;20.10;;;;;;10380142;28;20566;-74
2023/07/04 15:53:30;;;;;;;4.47;4.07;;;29.80;19.00;;;;;;10381891;28;20308;-74
2023/07/04 15:58:33;;;;;;;3.93;3.63;;;29.80;19.30;;;;;;10381056;28;20324;-73
2023/07/04 16:03:38;;;;;;;4.00;3.70;;;29.80;19.30;;;;;;10387842;28;20229;-75
2023/07/04 16:08:42;;;;;;;3.93;3.53;;;29.70;19.00;;;;;;10385536;28;20252;-76
2023/07/04 16:13:45;;;;;;;3.83;3.43;;;29.70;19.00;;;;;;10387270;28;20325;-76
2023/07/04 16:18:50;;;;;;;3.97;3.67;;;29.70;19.20;;;;;;10387593;28;20234;-77
2023/07/04 16:23:53;;;;;;;4.20;3.80;;;29.70;18.60;;;;;;10383543;28;20237;-79
2023/07/04 16:28:57;;;;;;;4.03;3.63;;;29.70;18.90;;;;;;10380889;28;20222;-77
2023/07/04 16:34:01;;;;;;;3.87;3.57;;;29.70;18.80;;;;;;10382806;28;20237;-74
2023/07/04 16:39:04;;;;;;;3.93;3.27;;;29.60;18.40;;;;;;10378552;28;20267;-74
2023/07/04 16:44:08;;;;;;;3.50;3.20;;;29.50;19.00;;;;;;10391493;28;20233;-75
2023/07/04 16:49:12;;;;;;;3.30;3.00;;;29.50;19.70;;;;;;10405159;28;20237;-75
2023/07/04 16:54:15;;;;;;;3.63;3.33;;;29.50;18.80;;;;;;10402922;28;20312;-75
2023/07/04 16:59:18;;;;;;;4.40;3.43;;;29.50;18.80;;;;;;10401478;28;20866;-75
2023/07/04 17:04:24;;;;;;;4.57;3.37;;;29.40;18.90;;;;;;10402008;28;20816;-75
2023/07/04 17:09:27;;;;;;;3.83;3.53;;;29.40;18.60;;;;;;10403519;28;20232;-75
2023/07/04 17:14:31;;;;;;;3.67;3.37;;;29.40;19.00;;;;;;10400280;28;20235;-75
2023/07/04 17:19:35;;;;;;;4.30;3.70;;;29.40;18.80;;;;;;10395160;28;20239;-77
2023/07/04 17:24:39;;;;;;;3.60;3.30;;;29.30;18.80;;;;;;10400527;28;20229;-77
2023/07/04 17:29:43;;;;;;;4.37;3.83;;;29.30;19.10;;;;;;10401625;28;20228;-77
2023/07/04 17:34:48;;;;;;;4.00;3.50;;;29.20;19.10;;;;;;10400138;28;20230;-77
2023/07/04 17:39:52;;;;;;;4.03;3.63;;;29.10;18.90;;;;;;10397629;28;20307;-77
2023/07/04 17:44:57;;;;;;;3.60;3.30;;;29.10;19.00;;;;;;10402068;28;20316;-77
2023/07/04 17:50:02;;;;;;;3.33;3.03;;;29.10;19.10;;;;;;10401148;28;20268;-77
2023/07/04 17:55:09;;;;;;;3.97;3.60;;;29.10;19.10;;;;;;10401210;28;20222;-77
2023/07/04 18:00:13;;;;;;;3.60;3.30;;;29.10;19.30;;;;;;10401809;28;20248;-76
2023/07/04 18:05:17;;;;;;;3.67;3.37;;;29.00;19.30;;;;;;10401344;28;20713;-77
2023/07/04 18:10:21;;;;;;;3.97;3.30;;;28.80;19.10;;;;;;10403012;28;20230;-76
2023/07/04 18:15:26;;;;;;;3.60;3.30;;;28.70;19.40;;;;;;10400688;28;20733;-77
2023/07/04 18:20:31;;;;;;;4.67;3.57;;;28.50;19.40;;;;;;10403600;28;20225;-76
2023/07/04 18:25:37;;;;;;;3.80;3.47;;;28.50;19.50;;;;;;10398890;28;20238;-77
2023/07/04 18:30:40;;;;;;;3.70;3.40;;;28.40;19.50;;;;;;10401102;28;20726;-77
2023/07/04 18:35:45;;;;;;;4.10;3.37;;;28.30;20.00;;;;;;10398274;28;20448;-76
2023/07/04 18:40:50;;;;;;;4.03;3.10;;;28.30;20.20;;;;;;10396287;28;20648;-76
2023/07/04 18:45:54;;;;;;;3.53;3.23;;;28.30;20.20;;;;;;10396355;28;20929;-75
2023/07/04 18:51:07;;;;;;;3.40;3.10;;;28.30;20.20;;;;;;10400207;28;20645;-76
2023/07/04 18:56:11;;;;;;;3.43;3.13;;;28.40;20.30;;;;;;10405752;28;20794;-75
2023/07/04 19:01:17;;;;;;;5.20;3.53;;;28.40;20.30;;;;;;10406593;28;20252;-75
2023/07/04 19:06:23;;;;;;;3.33;2.87;;;28.40;20.70;;;;;;10406077;28;20249;-74
2023/07/04 19:11:29;;;;;;;3.70;3.40;;;28.40;21.20;;;;;;10406199;28;20226;-73
2023/07/04 19:16:34;;;;;;;3.70;3.40;;;28.40;21.10;;;;;;10403320;28;20230;-79
2023/07/04 19:21:39;;;;;;;3.70;3.30;;;28.40;21.30;;;;;;10398985;28;20248;-81
2023/07/04 19:26:42;;;;;;;3.83;3.43;;;28.30;21.40;;;;;;10409722;28;20230;-80
2023/07/04 19:31:50;;;;;;;4.60;3.50;;;28.30;21.30;;;;;;10389572;28;21123;-78
2023/07/04 19:36:57;;;;;;;3.90;3.50;;;28.30;21.60;;;;;;10402554;28;20236;-79
2023/07/04 19:42:00;;;;;;;4.37;3.27;;;28.10;21.50;;;;;;10400353;28;20233;-78
2023/07/04 19:47:04;;;;;;;5.27;4.20;;;27.90;21.70;;;;;;10401709;28;20316;-78
2023/07/04 19:52:10;;;;;;;5.03;4.40;;;27.70;22.00;;;;;;10406405;28;20320;-78
2023/07/04 19:57:13;;;;;;;4.90;3.77;;;27.60;22.10;;;;;;10407025;28;21173;-78
2023/07/04 20:02:16;;;;;;;5.13;4.17;;;27.50;21.90;;;;;;10402277;28;20670;-78
2023/07/04 20:07:21;;;;;;;5.73;3.70;;;27.50;22.50;;;;;;10403319;28;20229;-78
2023/07/04 20:12:27;;;;;;;4.90;3.80;;;27.40;22.90;;;;;;10407760;28;20230;-80
2023/07/04 20:17:30;;;;;;;3.57;3.27;;;27.30;22.50;;;;;;10398478;28;20234;-79
2023/07/04 20:22:35;;;;;;;4.30;3.87;;;27.10;22.70;;;;;;10399831;28;20226;-79
2023/07/04 20:27:38;;;;;;;5.50;4.00;;;27.00;23.10;;;;;;10402959;28;20239;-78
2023/07/04 20:32:41;;;;;;;5.17;3.93;;;26.70;22.80;;;;;;10402207;28;20225;-79
2023/07/04 20:37:49;;;;;;;5.87;4.00;;;26.40;23.40;;;;;;10402580;28;20287;-79
2023/07/04 20:42:53;;;;;;;5.37;4.20;;;26.20;24.20;;;;;;10402205;28;20312;-79
2023/07/04 20:47:56;;;;;;;5.00;4.10;;;26.00;23.90;;;;;;10410260;28;20233;-79
2023/07/04 20:53:01;;;;;;;4.30;3.90;;;25.90;24.10;;;;;;10413503;28;20229;-79
2023/07/04 20:58:06;;;;;;;4.30;3.90;;;25.80;24.60;;;;;;10412985;28;20214;-78
2023/07/04 21:03:10;;;;;;;5.23;3.90;;;25.70;25.00;;;;;;10413436;28;20226;-79
2023/07/04 21:08:16;;;;;;;3.67;3.17;;;25.60;25.10;;;;;;10413526;28;20238;-79
2023/07/04 21:13:20;;;;;;;4.77;3.67;;;25.40;25.40;;;;;;10413069;28;20214;-79
2023/07/04 21:18:23;;;;;;;3.40;3.10;;;25.20;26.00;;;;;;10409543;28;20320;-79
2023/07/04 21:23:28;;;;;;;2.70;2.50;;;25.00;25.60;;;;;;10404476;28;20686;-79
2023/07/04 21:28:31;;;;;;;4.60;3.20;;;24.90;26.40;;;;;;10412530;28;20593;-78
2023/07/04 21:33:35;;;;;;;3.00;2.70;;;24.70;26.10;;;;;;10419570;28;20883;-79
2023/07/04 21:38:40;;;;;;;2.73;2.53;;;24.70;26.50;;;;;;10418298;28;20228;-79
2023/07/04 21:43:44;;;;;;;2.90;2.70;;;24.50;27.20;;;;;;10419132;28;20303;-78
2023/07/04 21:48:47;;;;;;;2.67;2.47;;;24.40;27.00;;;;;;10418701;28;20232;-78
2023/07/04 21:53:55;;;;;;;2.67;2.40;;;24.30;27.50;;;;;;10418615;28;20225;-78
2023/07/04 21:58:59;;;;;;;3.73;2.47;;;24.20;28.20;;;;;;10418555;28;20736;-78
2023/07/04 22:04:03;;;;;;;2.50;2.27;;;24.10;28.10;;;;;;10416751;28;20308;-79
2023/07/04 22:09:08;;;;;;;2.63;2.20;;;24.00;28.00;;;;;;10418329;28;20249;-79
2023/07/04 22:14:11;;;;;;;2.50;2.30;;;24.00;28.30;;;;;;10417330;28;20236;-78
2023/07/04 22:19:29;;;;;;;2.07;1.93;;;23.90;28.00;;;;;;10418372;28;20681;-78
2023/07/04 22:24:34;;;;;;;2.27;2.13;;;24.00;28.00;;;;;;10416727;28;20249;-79
2023/07/04 22:29:37;;;;;;;2.50;2.30;;;24.00;29.00;;;;;;10414955;28;20310;-79
2023/07/04 22:34:40;;;;;;;3.40;2.37;;;24.10;28.30;;;;;;10414132;28;20600;-79
2023/07/04 22:39:45;;;;;;;2.67;2.20;;;24.00;28.30;;;;;;10415387;28;20257;-78
2023/07/04 22:44:49;;;;;;;2.33;2.13;;;24.00;29.10;;;;;;10414881;28;20306;-79
2023/07/04 22:49:52;;;;;;;1.80;1.70;;;24.00;28.80;;;;;;10415170;28;20320;-79
2023/07/04 22:54:57;;;;;;;2.43;2.23;;;24.00;28.70;;;;;;10403958;28;20392;-79
2023/07/04 23:00:00;;;;;;;2.40;2.20;;;24.10;29.20;;;;;;10405868;28;20301;-79
2023/07/04 23:05:04;;;;;;;2.43;2.23;;;24.10;28.60;;;;;;10413763;28;20229;-79
2023/07/04 23:10:11;;;;;;;2.40;2.20;;;24.10;28.80;;;;;;10414695;28;20250;-78
2023/07/04 23:15:17;;;;;;;2.70;2.50;;;24.10;29.70;;;;;;10414199;28;20817;-79
2023/07/04 23:20:20;;;;;;;2.40;2.20;;;24.00;28.80;;;;;;10413280;28;20229;-79
2023/07/04 23:25:27;;;;;;;2.50;2.27;;;23.90;28.80;;;;;;10408408;28;20690;-79
2023/07/04 23:30:30;;;;;;;2.30;2.10;;;23.90;29.30;;;;;;10411863;28;20249;-79
2023/07/04 23:35:33;;;;;;;2.33;2.13;;;23.60;29.00;;;;;;10404397;28;20317;-79
2023/07/04 23:40:38;;;;;;;2.50;2.30;;;23.50;28.90;;;;;;10408015;28;20308;-79
2023/07/04 23:45:42;;;;;;;2.97;2.30;;;23.30;29.50;;;;;;10409518;28;20316;-79
2023/07/04 23:50:46;;;;;;;2.17;2.00;;;23.10;29.50;;;;;;10406190;28;20233;-79
2023/07/04 23:55:51;;;;;;;2.37;2.17;;;23.00;29.50;;;;;;10407302;28;20260;-79
